createdAt,value
2023-07-24T00:02:29.965Z,26.08
2023-07-24T00:05:32.127Z,26.10
2023-07-24T00:08:34.113Z,26.08
2023-07-24T00:11:36.332Z,26.15
2023-07-24T00:14:38.537Z,26.16
2023-07-24T00:17:41.765Z,26.17
2023-07-24T00:20:43.862Z,26.13
2023-07-24T00:23:47.163Z,26.17
2023-07-24T00:26:49.260Z,26.15
2023-07-24T00:29:51.425Z,26.15
2023-07-24T00:32:53.559Z,26.14
2023-07-24T00:36:01.138Z,26.14
2023-07-24T00:39:03.730Z,26.13
2023-07-24T00:42:07.798Z,26.14
2023-07-24T00:45:10.429Z,26.12
2023-07-24T00:48:12.467Z,26.15
2023-07-24T00:51:16.557Z,26.16
2023-07-24T00:54:20.927Z,26.14
2023-07-24T00:57:24.374Z,26.15
2023-07-24T01:00:26.708Z,26.14
2023-07-24T01:03:34.985Z,26.16
2023-07-24T01:06:37.034Z,26.14
2023-07-24T01:09:39.091Z,26.15
2023-07-24T01:12:52.642Z,26.12
2023-07-24T01:16:19.840Z,26.14
2023-07-24T01:19:51.571Z,26.13
2023-07-24T01:23:28.648Z,26.13
2023-07-24T01:26:33.330Z,26.13
2023-07-24T01:29:35.707Z,26.12
2023-07-24T01:32:40.654Z,26.11
2023-07-24T01:35:45.616Z,26.12
2023-07-24T01:38:51.096Z,26.05
2023-07-24T01:41:53.440Z,26.02
2023-07-24T01:44:56.517Z,26.06
2023-07-24T01:47:59.466Z,26.10
2023-07-24T01:51:03.273Z,26.08
2023-07-24T01:54:06.337Z,26.08
2023-07-24T01:57:09.881Z,26.08
2023-07-24T02:00:12.591Z,26.07
2023-07-24T02:03:14.922Z,26.08
2023-07-24T02:06:17.230Z,26.07
2023-07-24T02:09:19.988Z,26.01
2023-07-24T02:12:22.029Z,26.03
2023-07-24T02:15:24.254Z,26.02
2023-07-24T02:18:26.480Z,26.05
2023-07-24T02:21:30.627Z,26.03
2023-07-24T02:24:33.086Z,26.05
2023-07-24T02:27:35.890Z,26.01
2023-07-24T02:30:41.150Z,26.01
2023-07-24T02:33:43.560Z,25.97
2023-07-24T02:36:45.710Z,25.97
2023-07-24T02:39:48.672Z,26.00
2023-07-24T02:42:51.292Z,25.97
2023-07-24T02:45:53.633Z,25.93
2023-07-24T02:48:56.674Z,25.90
2023-07-24T02:52:00.112Z,25.92
2023-07-24T02:55:02.307Z,25.92
2023-07-24T02:58:04.601Z,25.94
2023-07-24T03:01:08.503Z,25.97
2023-07-24T03:04:10.867Z,25.97
2023-07-24T03:07:13.039Z,25.98
2023-07-24T03:10:15.255Z,25.97
2023-07-24T03:13:18.342Z,26.00
2023-07-24T03:16:22.336Z,25.99
2023-07-24T03:19:24.930Z,26.02
2023-07-24T03:22:27.083Z,26.02
2023-07-24T03:25:29.224Z,26.01
2023-07-24T03:28:32.123Z,26.00
2023-07-24T03:31:34.907Z,26.03
2023-07-24T03:34:37.659Z,26.05
2023-07-24T03:37:39.969Z,25.92
2023-07-24T03:40:42.198Z,25.81
2023-07-24T03:43:45.375Z,25.79
2023-07-24T03:46:47.491Z,25.83
2023-07-24T03:49:51.696Z,25.89
2023-07-24T03:52:53.701Z,25.94
2023-07-24T03:55:56.393Z,25.97
2023-07-24T03:58:58.645Z,26.01
2023-07-24T04:02:00.839Z,26.03
2023-07-24T04:05:02.919Z,26.01
2023-07-24T04:08:05.992Z,25.84
2023-07-24T04:11:08.071Z,25.87
2023-07-24T04:14:10.223Z,25.93
2023-07-24T04:17:12.201Z,25.85
2023-07-24T04:20:14.509Z,25.89
2023-07-24T04:23:16.475Z,26.00
2023-07-24T04:26:18.514Z,26.01
2023-07-24T04:29:24.915Z,26.07
2023-07-24T04:32:29.973Z,26.07
2023-07-24T04:35:31.986Z,26.06
2023-07-24T04:38:34.097Z,26.07
2023-07-24T04:41:36.154Z,26.10
2023-07-24T04:44:38.220Z,26.13
2023-07-24T04:47:40.406Z,26.17
2023-07-24T04:50:42.507Z,26.12
2023-07-24T04:53:45.210Z,26.13
2023-07-24T04:56:48.494Z,26.17
2023-07-24T04:59:50.534Z,26.19
2023-07-24T05:02:52.671Z,26.19
2023-07-24T05:05:58.182Z,26.25
2023-07-24T05:09:00.338Z,26.22
2023-07-24T05:12:02.453Z,26.21
2023-07-24T05:15:04.897Z,26.15
2023-07-24T05:18:07.004Z,26.05
2023-07-24T05:21:09.334Z,26.01
2023-07-24T05:24:11.537Z,26.07
2023-07-24T05:27:13.836Z,25.95
2023-07-24T05:30:16.893Z,26.05
2023-07-24T05:33:18.936Z,26.14
2023-07-24T05:36:21.012Z,26.19
2023-07-24T05:39:23.092Z,26.19
2023-07-24T05:42:25.255Z,26.22
2023-07-24T05:45:28.459Z,26.20
2023-07-24T05:48:30.693Z,26.19
2023-07-24T05:51:32.847Z,26.13
2023-07-24T05:54:35.008Z,26.17
2023-07-24T05:57:37.657Z,26.18
2023-07-24T06:00:40.244Z,26.19
2023-07-24T06:03:42.498Z,26.24
2023-07-24T06:06:45.064Z,26.28
2023-07-24T06:09:47.200Z,26.28
2023-07-24T06:12:49.252Z,26.26
2023-07-24T06:15:53.248Z,26.33
2023-07-24T06:18:55.341Z,26.39
2023-07-24T06:21:57.583Z,26.42
2023-07-24T06:24:59.815Z,26.43
2023-07-24T06:28:01.897Z,26.41
2023-07-24T06:31:03.971Z,26.46
2023-07-24T06:34:06.338Z,26.53
2023-07-24T06:37:21.142Z,26.44
2023-07-24T06:40:25.709Z,26.49
2023-07-24T06:43:30.060Z,26.56
2023-07-24T06:46:34.774Z,26.62
2023-07-24T06:49:37.846Z,26.61
2023-07-24T06:52:39.862Z,26.63
2023-07-24T06:55:43.375Z,26.64
2023-07-24T06:58:45.488Z,26.66
2023-07-24T07:01:47.531Z,26.65
2023-07-24T07:04:49.621Z,26.70
2023-07-24T07:07:51.857Z,26.77
2023-07-24T07:10:58.339Z,26.79
2023-07-24T07:14:00.430Z,26.77
2023-07-24T07:17:02.634Z,26.81
2023-07-24T07:20:05.118Z,26.86
2023-07-24T07:23:07.206Z,26.89
2023-07-24T07:26:09.705Z,26.92
2023-07-24T07:29:11.747Z,26.91
2023-07-24T07:35:37.562Z,26.97
2023-07-24T07:38:40.957Z,27.01
2023-07-24T07:41:43.147Z,27.04
2023-07-24T07:44:45.395Z,27.08
2023-07-24T07:47:47.564Z,27.10
2023-07-24T07:50:53.101Z,27.12
2023-07-24T07:53:55.795Z,27.14
2023-07-24T07:56:57.842Z,27.17
2023-07-24T07:59:59.774Z,27.21
2023-07-24T08:03:01.928Z,27.24
2023-07-24T08:06:04.253Z,27.25
2023-07-24T08:09:06.447Z,27.26
2023-07-24T08:12:09.110Z,27.27
2023-07-24T08:15:11.731Z,27.30
2023-07-24T08:18:13.865Z,27.34
2023-07-24T08:21:16.398Z,27.37
2023-07-24T08:24:18.455Z,27.38
2023-07-24T08:27:20.557Z,27.41
2023-07-24T08:30:22.780Z,27.43
2023-07-24T08:33:25.002Z,27.44
2023-07-24T08:36:27.104Z,27.50
2023-07-24T08:39:29.834Z,27.51
2023-07-24T08:42:32.783Z,27.53
2023-07-24T08:45:34.943Z,27.56
2023-07-24T08:48:39.069Z,27.60
2023-07-24T08:51:45.694Z,27.61
2023-07-24T08:54:49.988Z,27.68
2023-07-24T08:57:52.154Z,27.69
2023-07-24T09:00:54.482Z,27.66
2023-07-24T09:03:57.529Z,27.72
2023-07-24T09:07:00.111Z,27.73
2023-07-24T09:10:02.214Z,27.76
2023-07-24T09:13:05.310Z,27.79
2023-07-24T09:16:07.474Z,27.85
2023-07-24T09:19:26.640Z,27.90
2023-07-24T09:22:29.842Z,27.89
2023-07-24T09:25:35.987Z,27.91
2023-07-24T09:28:40.445Z,27.95
2023-07-24T09:31:42.810Z,28.00
2023-07-24T09:34:44.857Z,27.98
2023-07-24T09:37:47.857Z,28.06
2023-07-24T09:40:51.470Z,28.06
2023-07-24T09:44:00.008Z,28.14
2023-07-24T09:47:25.860Z,28.13
2023-07-24T09:50:25.687Z,28.14
2023-07-24T09:53:55.161Z,28.17
2023-07-24T09:57:10.727Z,28.20
2023-07-24T10:00:18.277Z,28.23
2023-07-24T10:03:21.672Z,28.26
2023-07-24T10:06:25.043Z,28.19
2023-07-24T10:09:30.358Z,28.23
2023-07-24T10:12:33.790Z,28.24
2023-07-24T10:15:37.036Z,28.25
2023-07-24T10:18:47.280Z,28.34
2023-07-24T10:21:50.352Z,28.33
2023-07-24T10:24:56.907Z,28.38
2023-07-24T10:28:12.877Z,28.40
2023-07-24T10:31:24.512Z,28.42
2023-07-24T10:34:38.099Z,28.49
2023-07-24T10:37:40.298Z,28.51
2023-07-24T10:40:45.964Z,28.49
2023-07-24T10:43:52.483Z,28.52
2023-07-24T10:46:54.695Z,28.53
2023-07-24T10:49:59.231Z,28.55
2023-07-24T10:53:03.261Z,28.60
2023-07-24T10:56:07.088Z,28.63
2023-07-24T10:59:11.546Z,28.63
2023-07-24T11:02:14.337Z,28.72
2023-07-24T11:05:18.304Z,28.69
2023-07-24T11:08:22.343Z,28.75
2023-07-24T11:11:35.793Z,28.79
2023-07-24T11:14:50.052Z,29.00
2023-07-24T11:17:52.411Z,28.92
2023-07-24T11:20:56.493Z,28.93
2023-07-24T11:24:02.446Z,28.90
2023-07-24T11:27:11.916Z,28.98
2023-07-24T11:30:23.328Z,29.01
2023-07-24T11:33:27.803Z,28.95
2023-07-24T11:36:32.301Z,29.00
2023-07-24T11:39:35.633Z,28.98
2023-07-24T11:42:46.105Z,29.04
2023-07-24T11:45:55.377Z,29.02
2023-07-24T11:48:59.386Z,29.04
2023-07-24T11:52:08.622Z,29.05
2023-07-24T11:55:16.440Z,29.10
2023-07-24T11:58:22.119Z,29.08
2023-07-24T12:01:24.172Z,29.10
2023-07-24T12:04:27.357Z,29.03
2023-07-24T12:07:36.051Z,29.07
2023-07-24T12:10:40.403Z,29.10
2023-07-24T12:13:42.984Z,29.10
2023-07-24T12:16:45.319Z,29.18
2023-07-24T12:19:48.234Z,29.24
2023-07-24T12:22:50.878Z,29.22
2023-07-24T12:25:53.896Z,29.21
2023-07-24T12:28:56.226Z,29.21
2023-07-24T12:32:03.537Z,29.27
2023-07-24T12:35:06.632Z,29.26
2023-07-24T12:38:08.669Z,29.30
2023-07-24T12:41:10.883Z,29.33
2023-07-24T12:44:13.096Z,29.37
2023-07-24T12:47:15.481Z,29.35
2023-07-24T12:50:17.896Z,29.33
2023-07-24T12:53:28.340Z,29.37
2023-07-24T12:56:34.920Z,29.37
2023-07-24T12:59:37.008Z,29.40
2023-07-24T13:02:39.306Z,29.29
2023-07-24T13:05:41.700Z,29.33
2023-07-24T13:08:44.852Z,29.41
2023-07-24T13:11:49.623Z,29.44
2023-07-24T13:14:51.852Z,29.46
2023-07-24T13:17:55.480Z,29.43
2023-07-24T13:20:58.090Z,29.45
2023-07-24T13:24:00.260Z,29.43
2023-07-24T13:27:02.419Z,29.48
2023-07-24T13:30:07.544Z,29.53
2023-07-24T13:33:10.829Z,29.55
2023-07-24T13:36:13.766Z,29.55
2023-07-24T13:39:16.877Z,29.54
2023-07-24T13:42:18.956Z,29.49
2023-07-24T13:45:21.047Z,29.53
2023-07-24T13:48:23.266Z,29.61
2023-07-24T13:51:25.474Z,29.63
2023-07-24T13:54:28.309Z,29.66
2023-07-24T13:57:30.511Z,29.68
2023-07-24T14:00:33.774Z,29.63
2023-07-24T14:03:36.073Z,29.64
2023-07-24T14:06:38.249Z,29.72
2023-07-24T14:09:43.419Z,29.66
2023-07-24T14:12:46.522Z,29.66
2023-07-24T14:15:49.619Z,29.63
2023-07-24T14:18:52.721Z,29.66
2023-07-24T14:21:54.979Z,29.68
2023-07-24T14:24:56.995Z,29.57
2023-07-24T14:27:59.142Z,29.59
2023-07-24T14:31:01.829Z,29.57
2023-07-24T14:34:04.109Z,29.62
2023-07-24T14:37:07.090Z,29.62
2023-07-24T14:40:11.808Z,29.71
2023-07-24T14:43:14.515Z,29.77
2023-07-24T14:46:16.744Z,29.81
2023-07-24T14:49:18.893Z,29.85
2023-07-24T14:52:21.237Z,29.95
2023-07-24T14:55:23.538Z,29.93
2023-07-24T14:58:26.990Z,29.92
2023-07-24T15:01:37.850Z,29.92
2023-07-24T15:04:40.327Z,29.93
2023-07-24T15:07:42.547Z,30.00
2023-07-24T15:10:45.893Z,30.00
2023-07-24T15:13:48.166Z,29.99
2023-07-24T15:16:50.457Z,30.03
2023-07-24T15:19:52.571Z,30.06
2023-07-24T15:22:54.656Z,30.09
2023-07-24T15:25:56.851Z,30.14
2023-07-24T15:28:59.058Z,30.12
2023-07-24T15:32:02.397Z,30.13
2023-07-24T15:35:05.793Z,30.14
2023-07-24T15:38:08.963Z,30.05
2023-07-24T15:41:11.140Z,30.03
2023-07-24T15:44:13.687Z,29.96
2023-07-24T15:47:17.022Z,29.93
2023-07-24T15:50:19.125Z,29.87
2023-07-24T15:53:21.824Z,29.80
2023-07-24T15:56:24.078Z,29.72
2023-07-24T15:59:29.246Z,29.68
2023-07-24T16:02:31.401Z,29.61
2023-07-24T16:05:33.579Z,29.54
2023-07-24T16:08:35.690Z,29.48
2023-07-24T16:11:37.830Z,29.40
2023-07-24T16:14:40.659Z,29.31
2023-07-24T16:20:49.435Z,29.15
2023-07-24T16:23:51.654Z,29.15
2023-07-24T16:27:08.640Z,29.10
2023-07-24T16:30:11.386Z,28.98
2023-07-24T16:33:23.060Z,28.95
2023-07-24T16:36:25.899Z,28.92
2023-07-24T16:39:33.324Z,28.86
2023-07-24T16:42:36.394Z,28.81
2023-07-24T16:45:41.757Z,28.77
2023-07-24T16:48:45.069Z,28.71
2023-07-24T16:51:47.249Z,28.62
2023-07-24T16:54:49.485Z,28.56
2023-07-24T16:57:57.359Z,28.50
2023-07-24T17:01:00.499Z,28.49
2023-07-24T17:04:02.911Z,28.42
2023-07-24T17:07:05.639Z,28.40
2023-07-24T17:10:10.837Z,28.35
2023-07-24T17:13:13.706Z,28.31
2023-07-24T17:16:20.129Z,28.27
2023-07-24T17:19:24.126Z,28.21
2023-07-24T17:22:26.553Z,28.15
2023-07-24T17:25:28.864Z,28.08
2023-07-24T17:28:30.906Z,28.04
2023-07-24T17:31:33.771Z,27.98
2023-07-24T17:34:36.167Z,27.93
2023-07-24T17:37:39.240Z,27.86
2023-07-24T17:40:42.069Z,27.81
2023-07-24T17:43:46.677Z,27.73
2023-07-24T17:46:48.759Z,27.71
2023-07-24T17:50:05.211Z,27.70
2023-07-24T17:53:11.768Z,27.65
2023-07-24T17:56:17.305Z,27.63
2023-07-24T17:59:24.267Z,27.60
2023-07-24T18:02:26.909Z,27.55
2023-07-24T18:05:28.968Z,27.53
2023-07-24T18:08:32.947Z,27.49
2023-07-24T18:11:36.178Z,27.45
2023-07-24T18:14:38.327Z,27.44
2023-07-24T18:17:40.898Z,27.39
2023-07-24T18:20:43.244Z,27.37
2023-07-24T18:23:46.723Z,27.33
2023-07-24T18:26:48.967Z,27.33
2023-07-24T18:29:51.337Z,27.29
2023-07-24T18:32:54.560Z,27.28
2023-07-24T18:35:58.132Z,27.25
2023-07-24T18:39:00.601Z,27.26
2023-07-24T18:42:02.976Z,27.24
2023-07-24T18:45:05.731Z,27.21
2023-07-24T18:48:09.643Z,27.19
2023-07-24T18:51:12.063Z,27.14
2023-07-24T18:54:15.591Z,27.14
2023-07-24T18:57:17.880Z,27.11
2023-07-24T19:00:20.187Z,27.10
2023-07-24T19:03:22.246Z,27.07
2023-07-24T19:06:24.433Z,27.05
2023-07-24T19:09:26.488Z,27.02
2023-07-24T19:12:28.621Z,26.97
2023-07-24T19:15:30.724Z,27.00
2023-07-24T19:18:32.769Z,26.99
2023-07-24T19:21:36.142Z,26.98
2023-07-24T19:24:38.116Z,26.96
2023-07-24T19:27:41.521Z,26.93
2023-07-24T19:30:43.690Z,26.96
2023-07-24T19:33:45.673Z,26.95
2023-07-24T19:36:47.701Z,26.95
2023-07-24T19:39:49.805Z,26.95
2023-07-24T19:42:52.300Z,26.94
2023-07-24T19:45:54.932Z,26.94
2023-07-24T19:48:57.179Z,26.94
2023-07-24T19:52:01.917Z,26.94
2023-07-24T19:55:04.420Z,26.93
2023-07-24T19:58:10.088Z,26.91
2023-07-24T20:01:17.557Z,26.91
2023-07-24T20:04:19.559Z,26.86
2023-07-24T20:07:21.669Z,26.86
2023-07-24T20:10:24.933Z,26.85
2023-07-24T20:13:28.815Z,26.83
2023-07-24T20:16:31.113Z,26.83
2023-07-24T20:19:36.938Z,26.82
2023-07-24T20:22:38.990Z,26.80
2023-07-24T20:25:41.917Z,26.79
2023-07-24T20:28:44.960Z,26.78
2023-07-24T20:31:47.156Z,26.79
2023-07-24T20:34:49.500Z,26.78
2023-07-24T20:37:51.617Z,26.78
2023-07-24T20:40:54.277Z,26.76
2023-07-24T20:43:56.463Z,26.73
2023-07-24T20:46:58.911Z,26.76
2023-07-24T20:50:01.007Z,26.76
2023-07-24T20:53:03.049Z,26.74
2023-07-24T20:56:05.140Z,26.72
2023-07-24T20:59:07.160Z,26.66
2023-07-24T21:02:09.248Z,26.67
2023-07-24T21:05:11.369Z,26.68
2023-07-24T21:08:13.568Z,26.65
2023-07-24T21:11:15.867Z,26.60
2023-07-24T21:14:17.903Z,26.57
2023-07-24T21:17:20.121Z,26.55
2023-07-24T21:20:22.823Z,26.58
2023-07-24T21:23:26.881Z,26.59
2023-07-24T21:26:29.240Z,26.57
2023-07-24T21:29:31.399Z,26.58
2023-07-24T21:32:34.045Z,26.60
2023-07-24T21:35:36.091Z,26.58
2023-07-24T21:38:41.563Z,26.59
2023-07-24T21:41:44.494Z,26.58
2023-07-24T21:44:46.624Z,26.55
2023-07-24T21:47:49.142Z,26.56
2023-07-24T21:50:54.345Z,26.56
2023-07-24T21:53:56.449Z,26.52
2023-07-24T21:56:58.457Z,26.52
2023-07-24T22:00:01.312Z,26.52
2023-07-24T22:03:05.670Z,26.51
2023-07-24T22:06:08.098Z,26.45
2023-07-24T22:09:10.213Z,26.44
2023-07-24T22:12:12.247Z,26.45
2023-07-24T22:15:14.311Z,26.44
2023-07-24T22:18:17.253Z,26.44
2023-07-24T22:21:19.446Z,26.44
2023-07-24T22:24:21.665Z,26.44
2023-07-24T22:27:23.923Z,26.45
2023-07-24T22:30:26.029Z,26.45
2023-07-24T22:33:28.085Z,26.43
2023-07-24T22:36:31.053Z,26.44
2023-07-24T22:39:33.196Z,26.41
2023-07-24T22:42:35.345Z,26.43
2023-07-24T22:45:37.471Z,26.42
2023-07-24T22:48:39.692Z,26.39
2023-07-24T22:51:41.700Z,26.36
2023-07-24T22:54:44.360Z,26.33
2023-07-24T22:57:46.683Z,26.27
2023-07-24T23:00:48.866Z,26.31
2023-07-24T23:03:50.954Z,26.30
2023-07-24T23:06:55.826Z,26.30
2023-07-24T23:09:57.881Z,26.31
2023-07-24T23:13:00.018Z,26.28
2023-07-24T23:16:02.309Z,26.27
2023-07-24T23:19:04.384Z,26.24
2023-07-24T23:22:06.603Z,26.22
2023-07-24T23:25:09.230Z,26.18
2023-07-24T23:28:11.221Z,26.15
2023-07-24T23:31:13.355Z,26.23
2023-07-24T23:34:15.477Z,26.24
2023-07-24T23:37:17.461Z,26.26
2023-07-24T23:40:19.498Z,26.17
2023-07-24T23:43:21.585Z,26.20
2023-07-24T23:46:23.697Z,26.22
2023-07-24T23:49:25.868Z,26.23
2023-07-24T23:52:29.493Z,26.23
2023-07-24T23:55:31.982Z,26.22
2023-07-24T23:58:34.127Z,26.23
